YOW weather

Ottawa Macdonald-Cartier International Airport
Ottawa, Ontario, Canada

Public forecast

Using degrees Celsius for public forecast. Weather courtesy of forecast.io.

Current aviation weather report (METAR) for Ottawa Macdonald-Cartier International Airport

Retrieved 2019/10/20 01:00 UTC (54 minutes ago):

CYOW 200100Z 09004KT 15SM SKC 04/01 A3002 RMK SLP173

Aviation forecast (TAF) for Ottawa Macdonald-Cartier International Airport

Retrieved 2019-10-20 03:42 UTC (0 seconds ago):

TAF CYOW 200240Z 2003/2024 06006KT P6SM FEW200 PROB30 2006/2013 1/2SM FZFG FM201500 09007KT P6SM FEW025 RMK NXT FCST BY 200600Z